Time;durP1;ratioP1;P1;durP2;ratioP2;P2;SDS_P1;SDS_P2;PMS_P1;PMS_P2;Temp;Humidity;BMP_temperature;BMP_pressure;BME280_temperature;BME280_humidity;BME280_pressure;Samples;Min_cycle;Max_cycle;Signal;HPM_P1;HPM_P2
2024/02/09 00:00:12;;;;;;;0.10;0.10;;;10.50;99.90;;;;;;5006224;28;20097;-83
2024/02/09 00:02:42;;;;;;;0.00;0.00;;;10.50;99.90;;;;;;4992462;28;20022;-84
2024/02/09 00:05:15;;;;;;;0.10;0.10;;;10.50;99.90;;;;;;5005400;28;20133;-84
2024/02/09 00:07:48;;;;;;;0.10;0.10;;;10.50;99.90;;;;;;5008774;28;20057;-84
2024/02/09 00:10:14;;;;;;;0.00;0.00;;;10.60;99.90;;;;;;5007699;28;20770;-86
2024/02/09 00:12:40;;;;;;;0.10;0.10;;;10.60;99.90;;;;;;5009295;28;20025;-86
2024/02/09 00:15:07;;;;;;;0.30;0.30;;;10.60;99.90;;;;;;5010498;28;20048;-85
2024/02/09 00:17:34;;;;;;;0.08;0.08;;;10.60;99.90;;;;;;5008372;28;20026;-85
2024/02/09 00:20:01;;;;;;;0.10;0.10;;;10.60;99.90;;;;;;5011832;28;20378;-90
2024/02/09 00:22:26;;;;;;;;;;;10.60;99.90;;;;;;5005482;28;20032;-89
2024/02/09 00:24:52;;;;;;;0.10;0.10;;;10.60;99.90;;;;;;5010953;28;20365;-87
2024/02/09 00:27:18;;;;;;;0.10;0.10;;;10.60;99.90;;;;;;5008397;28;20162;-86
2024/02/09 00:29:44;;;;;;;0.10;0.10;;;10.60;99.90;;;;;;5007491;28;20052;-86
2024/02/09 00:32:10;;;;;;;1.85;1.75;;;10.60;99.90;;;;;;5009227;28;20476;-85
2024/02/09 00:34:39;;;;;;;0.00;0.00;;;10.60;99.90;;;;;;5007067;28;20026;-85
2024/02/09 00:37:06;;;;;;;0.10;0.10;;;10.60;99.90;;;;;;5005945;28;20084;-85
2024/02/09 00:39:35;;;;;;;0.00;0.00;;;10.50;99.90;;;;;;5005804;28;20038;-86
2024/02/09 00:42:04;;;;;;;3.50;3.20;;;10.50;99.90;;;;;;5011626;28;20026;-86
2024/02/09 00:44:33;;;;;;;0.10;0.10;;;10.60;99.90;;;;;;5009331;28;20061;-87
2024/02/09 00:47:01;;;;;;;0.00;0.00;;;10.60;99.90;;;;;;5007289;28;20030;-87
2024/02/09 00:49:29;;;;;;;0.00;0.00;;;10.60;99.90;;;;;;5012572;28;20128;-85
2024/02/09 00:51:56;;;;;;;0.00;0.00;;;10.60;99.90;;;;;;5009031;28;20756;-83
2024/02/09 00:54:22;;;;;;;0.03;0.03;;;10.60;99.90;;;;;;5011712;28;20689;-83
2024/02/09 00:56:48;;;;;;;0.10;0.10;;;10.60;99.90;;;;;;5007541;28;20109;-83
2024/02/09 00:59:15;;;;;;;2.45;1.65;;;10.70;99.90;;;;;;5010859;28;20052;-85
2024/02/09 01:01:41;;;;;;;0.00;0.00;;;10.80;99.90;;;;;;5008801;28;20046;-85
2024/02/09 01:04:07;;;;;;;0.10;0.10;;;10.70;99.90;;;;;;5001760;28;20038;-85
2024/02/09 01:06:34;;;;;;;0.10;0.10;;;10.80;99.90;;;;;;5021331;28;20039;-84
2024/02/09 01:09:00;;;;;;;0.03;0.03;;;10.80;99.90;;;;;;5006545;28;20022;-88
2024/02/09 01:11:27;;;;;;;0.00;0.00;;;10.80;99.90;;;;;;5005262;28;20795;-86
2024/02/09 02:46:48;;;;;;;0.90;0.90;;;10.90;99.90;;;;;;5006040;28;20030;-84
2024/02/09 03:05:40;;;;;;;0.05;0.05;;;11.00;99.50;;;;;;5002620;28;20045;-84
2024/02/09 03:08:07;;;;;;;0.10;0.10;;;11.00;99.70;;;;;;5010208;28;20029;-86
2024/02/09 03:10:35;;;;;;;0.10;0.10;;;11.00;99.50;;;;;;5009459;28;20040;-86
2024/02/09 03:13:01;;;;;;;0.00;0.00;;;11.00;99.00;;;;;;5010255;28;20046;-86
2024/02/09 03:15:26;;;;;;;0.07;0.07;;;11.10;98.90;;;;;;5010325;28;20087;-86
2024/02/09 03:17:53;;;;;;;0.00;0.00;;;11.00;98.90;;;;;;5013209;28;20053;-86
2024/02/09 03:20:19;;;;;;;;;;;11.00;98.90;;;;;;5009872;28;20029;-85
2024/02/09 03:22:45;;;;;;;0.00;0.00;;;11.00;99.10;;;;;;5010382;28;20020;-82
2024/02/09 03:25:10;;;;;;;0.00;0.00;;;11.00;99.30;;;;;;5009770;28;20065;-83
2024/02/09 03:27:37;;;;;;;0.10;0.10;;;11.10;98.70;;;;;;5008269;28;20853;-83
2024/02/09 03:30:04;;;;;;;;;;;11.00;98.60;;;;;;5010832;28;20026;-83
2024/02/09 03:32:34;;;;;;;0.10;0.10;;;11.00;98.60;;;;;;5009714;28;19913;-83
2024/02/09 03:35:01;;;;;;;0.05;0.05;;;11.00;98.70;;;;;;5004613;28;20033;-84
2024/02/09 03:37:30;;;;;;;0.10;0.10;;;11.00;98.80;;;;;;5007203;28;20025;-84
2024/02/09 03:39:57;;;;;;;0.03;0.03;;;11.00;98.90;;;;;;5007758;28;20081;-84
2024/02/09 03:42:23;;;;;;;0.00;0.00;;;11.00;98.50;;;;;;5006153;28;20116;-84
2024/02/09 03:44:56;;;;;;;0.00;0.00;;;11.10;98.20;;;;;;5016515;28;20045;-82
2024/02/09 03:47:26;;;;;;;0.00;0.00;;;11.10;98.20;;;;;;5004872;28;20064;-82
2024/02/09 03:49:52;;;;;;;0.00;0.00;;;11.10;98.10;;;;;;5009539;28;20038;-82
2024/02/09 03:52:20;;;;;;;0.00;0.00;;;11.20;97.70;;;;;;5011461;28;20065;-82
2024/02/09 03:54:53;;;;;;;0.75;0.55;;;11.20;97.40;;;;;;5007793;28;21202;-80
2024/02/09 03:57:26;;;;;;;0.10;0.10;;;11.20;97.60;;;;;;5011323;28;20030;-81
2024/02/09 03:59:52;;;;;;;0.10;0.10;;;11.20;97.20;;;;;;5005507;28;20042;-81
2024/02/09 04:02:19;;;;;;;0.00;0.00;;;11.20;97.30;;;;;;5011428;28;20105;-82
2024/02/09 04:04:47;;;;;;;1.20;0.60;;;11.20;97.40;;;;;;5006438;28;20044;-83
2024/02/09 04:07:13;;;;;;;0.52;0.52;;;11.20;97.20;;;;;;5008960;28;20103;-82
2024/02/09 04:09:39;;;;;;;0.10;0.10;;;11.30;96.70;;;;;;5006724;28;20017;-82
2024/02/09 04:12:06;;;;;;;0.00;0.00;;;11.20;96.60;;;;;;5010262;28;20045;-83
2024/02/09 04:14:31;;;;;;;;;;;11.30;96.70;;;;;;5012388;28;20034;-82
2024/02/09 04:16:58;;;;;;;0.00;0.00;;;11.30;96.50;;;;;;5010556;28;19917;-82
2024/02/09 04:19:25;;;;;;;0.00;0.00;;;11.30;96.40;;;;;;5008120;28;20808;-82
2024/02/09 04:21:51;;;;;;;0.00;0.00;;;11.30;96.50;;;;;;5006404;28;20034;-82
2024/02/09 04:24:24;;;;;;;0.00;0.00;;;11.30;96.30;;;;;;5007546;28;20543;-82
2024/02/09 04:26:51;;;;;;;0.40;0.40;;;11.30;96.20;;;;;;5008554;28;20034;-82
2024/02/09 04:29:21;;;;;;;0.10;0.10;;;11.40;96.10;;;;;;5010137;28;20044;-82
2024/02/09 04:31:48;;;;;;;0.00;0.00;;;11.30;96.00;;;;;;5010312;28;20115;-82
2024/02/09 04:34:14;;;;;;;0.10;0.10;;;11.30;95.90;;;;;;5008872;28;20045;-82
2024/02/09 04:36:47;;;;;;;0.63;0.63;;;11.40;95.80;;;;;;5006859;28;20025;-82
2024/02/09 04:39:14;;;;;;;0.25;0.25;;;11.30;95.90;;;;;;5008564;28;20081;-82
2024/02/09 04:41:43;;;;;;;0.00;0.00;;;11.30;96.10;;;;;;5006800;28;20124;-81
2024/02/09 04:44:08;;;;;;;0.82;0.82;;;11.30;96.00;;;;;;5014881;28;20108;-82
2024/02/09 04:46:35;;;;;;;0.00;0.00;;;11.20;96.20;;;;;;5017453;28;20037;-83
2024/02/09 04:49:02;;;;;;;0.00;0.00;;;11.20;96.40;;;;;;5006032;28;20125;-84
2024/02/09 04:51:28;;;;;;;0.43;0.43;;;11.30;96.10;;;;;;5005696;28;20041;-83
2024/02/09 04:53:54;;;;;;;0.00;0.00;;;11.30;96.00;;;;;;5007096;28;20795;-83
2024/02/09 04:56:32;;;;;;;0.35;0.35;;;11.40;95.30;;;;;;5011442;28;20102;-81
2024/02/09 04:59:01;;;;;;;1.10;1.10;;;11.30;95.60;;;;;;5007829;28;20056;-82
2024/02/09 05:01:29;;;;;;;0.10;0.10;;;11.30;95.60;;;;;;5009568;28;20100;-83
2024/02/09 05:03:57;;;;;;;0.08;0.08;;;11.30;95.50;;;;;;5003891;28;20030;-82
2024/02/09 05:06:23;;;;;;;0.20;0.20;;;11.30;95.70;;;;;;5007197;28;20112;-82
2024/02/09 05:08:49;;;;;;;0.52;0.52;;;11.30;95.60;;;;;;5005054;28;20029;-82
2024/02/09 05:11:14;;;;;;;0.00;0.00;;;11.30;95.40;;;;;;5003509;28;20117;-83
2024/02/09 05:13:41;;;;;;;1.33;1.27;;;11.30;95.60;;;;;;5011092;28;20037;-85
2024/02/09 05:16:09;;;;;;;0.10;0.10;;;11.40;95.30;;;;;;5006351;28;20034;-86
2024/02/09 05:18:35;;;;;;;0.10;0.10;;;11.30;95.40;;;;;;5005614;28;20057;-84
2024/02/09 05:21:01;;;;;;;0.10;0.10;;;11.30;95.50;;;;;;5008358;28;20103;-84
2024/02/09 05:23:27;;;;;;;0.00;0.00;;;11.30;95.50;;;;;;5006602;28;20030;-83
2024/02/09 05:25:52;;;;;;;0.83;0.83;;;11.30;95.80;;;;;;5008870;28;20034;-81
2024/02/09 05:28:18;;;;;;;0.00;0.00;;;11.30;95.60;;;;;;5008991;28;20049;-81
2024/02/09 05:30:44;;;;;;;0.00;0.00;;;11.30;95.80;;;;;;5006901;28;20026;-83
2024/02/09 05:33:10;;;;;;;0.10;0.10;;;11.30;95.60;;;;;;5008010;28;20688;-83
2024/02/09 05:35:38;;;;;;;0.00;0.00;;;11.30;95.40;;;;;;5005426;28;20041;-83
2024/02/09 05:38:04;;;;;;;0.13;0.13;;;11.30;95.60;;;;;;5005741;28;20030;-82
2024/02/09 05:40:30;;;;;;;0.53;0.53;;;11.20;95.60;;;;;;5006443;28;20053;-83
2024/02/09 05:42:55;;;;;;;0.00;0.00;;;11.40;95.20;;;;;;5005977;28;20364;-83
2024/02/09 05:45:21;;;;;;;0.00;0.00;;;11.30;95.10;;;;;;5008570;28;20157;-82
2024/02/09 05:47:47;;;;;;;0.10;0.10;;;11.40;95.10;;;;;;5009177;28;20087;-82
2024/02/09 05:50:13;;;;;;;0.00;0.00;;;11.40;95.10;;;;;;5006097;28;20089;-81
2024/02/09 05:52:39;;;;;;;0.07;0.07;;;11.30;95.20;;;;;;5010614;28;20600;-83
2024/02/09 05:55:08;;;;;;;0.00;0.00;;;11.30;95.50;;;;;;5007870;28;20032;-84
2024/02/09 05:57:36;;;;;;;0.00;0.00;;;11.30;95.30;;;;;;5008936;28;20400;-80
2024/02/09 06:00:03;;;;;;;0.30;0.30;;;11.30;95.10;;;;;;5007119;28;20061;-81
2024/02/09 06:02:31;;;;;;;0.25;0.25;;;11.40;94.90;;;;;;5007472;28;20030;-81
2024/02/09 06:04:57;;;;;;;0.00;0.00;;;11.30;95.10;;;;;;4998807;28;20505;-83
2024/02/09 06:07:27;;;;;;;0.17;0.17;;;11.40;94.90;;;;;;5007491;28;20066;-82
2024/02/09 06:09:52;;;;;;;0.08;0.08;;;11.40;94.80;;;;;;5005974;28;20040;-82
2024/02/09 06:12:18;;;;;;;0.00;0.00;;;11.30;95.00;;;;;;5006674;28;20141;-82
2024/02/09 06:14:44;;;;;;;0.00;0.00;;;11.40;95.00;;;;;;5008617;28;20470;-83
2024/02/09 06:17:12;;;;;;;0.00;0.00;;;11.40;94.70;;;;;;5006845;28;20575;-82
2024/02/09 06:19:39;;;;;;;0.10;0.10;;;11.40;94.70;;;;;;5006409;28;20026;-85
2024/02/09 06:22:04;;;;;;;;;;;11.40;94.70;;;;;;5005509;28;20540;-83
2024/02/09 06:24:31;;;;;;;0.00;0.00;;;11.30;95.00;;;;;;5009148;28;19913;-88
2024/02/09 06:26:57;;;;;;;0.00;0.00;;;11.30;94.90;;;;;;5006920;28;20125;-85
2024/02/09 06:29:22;;;;;;;0.10;0.10;;;11.40;94.80;;;;;;5011881;28;20133;-87
2024/02/09 06:31:53;;;;;;;0.00;0.00;;;11.30;95.00;;;;;;5010839;28;20025;-84
2024/02/09 06:34:18;;;;;;;0.10;0.10;;;11.30;95.10;;;;;;5007330;28;20087;-84
2024/02/09 06:36:46;;;;;;;0.00;0.00;;;11.40;94.80;;;;;;5008898;28;20021;-83
2024/02/09 06:39:12;;;;;;;0.00;0.00;;;11.40;94.80;;;;;;5009095;28;20105;-83
2024/02/09 06:41:38;;;;;;;0.20;0.20;;;11.40;94.90;;;;;;5009534;28;20113;-83
2024/02/09 06:44:04;;;;;;;0.10;0.10;;;11.30;95.50;;;;;;5014001;28;20081;-85
2024/02/09 06:46:29;;;;;;;0.00;0.00;;;11.20;95.80;;;;;;5008860;28;20037;-82
2024/02/09 06:48:56;;;;;;;0.03;0.03;;;11.00;97.40;;;;;;5009534;28;20141;-83
2024/02/09 06:51:22;;;;;;;0.00;0.00;;;11.10;97.50;;;;;;5011525;28;20022;-81
2024/02/09 06:53:48;;;;;;;0.00;0.00;;;11.20;97.40;;;;;;5009671;28;20500;-81
2024/02/09 06:56:14;;;;;;;0.20;0.20;;;11.10;97.40;;;;;;5017208;28;20040;-84
2024/02/09 06:58:40;;;;;;;0.00;0.00;;;11.10;97.90;;;;;;5012140;28;20018;-84
2024/02/09 07:01:10;;;;;;;0.03;0.03;;;11.10;98.20;;;;;;5013304;28;20576;-81
2024/02/09 07:03:37;;;;;;;0.10;0.10;;;11.10;98.10;;;;;;5013133;28;20014;-83
2024/02/09 07:06:07;;;;;;;0.52;0.35;;;11.00;98.20;;;;;;5018070;28;20026;-83
2024/02/09 07:08:39;;;;;;;0.00;0.00;;;11.10;98.20;;;;;;5012733;28;20026;-83
2024/02/09 07:11:12;;;;;;;0.00;0.00;;;11.00;98.40;;;;;;5015080;28;20061;-83
2024/02/09 07:13:46;;;;;;;0.08;0.08;;;11.10;98.20;;;;;;5008237;28;20487;-84
2024/02/09 07:16:11;;;;;;;0.10;0.10;;;10.90;99.50;;;;;;5015685;28;20022;-82
2024/02/09 07:18:39;;;;;;;0.00;0.00;;;10.80;99.90;;;;;;5015761;28;20029;-83
2024/02/09 07:21:06;;;;;;;0.05;0.05;;;10.70;99.90;;;;;;5009269;28;20705;-83
2024/02/09 07:23:32;;;;;;;0.05;0.05;;;10.80;99.90;;;;;;5017234;28;20017;-85
2024/02/09 07:25:57;;;;;;;0.10;0.10;;;10.90;99.90;;;;;;5016385;28;20033;-80
2024/02/09 07:28:23;;;;;;;0.00;0.00;;;11.00;99.70;;;;;;5009346;28;20021;-82
2024/02/09 07:30:49;;;;;;;0.00;0.00;;;11.00;99.30;;;;;;5009815;28;20041;-80
2024/02/09 07:33:16;;;;;;;0.00;0.00;;;11.00;99.20;;;;;;4997435;28;20226;-81
2024/02/09 07:35:43;;;;;;;0.00;0.00;;;11.10;98.60;;;;;;5011003;28;20037;-81
2024/02/09 07:38:10;;;;;;;0.03;0.03;;;11.10;98.40;;;;;;5012572;28;20026;-82
2024/02/09 07:40:35;;;;;;;0.10;0.10;;;11.10;98.20;;;;;;5008937;28;20034;-82
2024/02/09 07:43:01;;;;;;;0.00;0.00;;;11.10;98.00;;;;;;5009365;28;20420;-81
2024/02/09 07:45:27;;;;;;;0.10;0.10;;;11.20;97.70;;;;;;5009749;28;20037;-82
2024/02/09 07:47:53;;;;;;;0.00;0.00;;;11.10;98.00;;;;;;5003095;28;20033;-82
2024/02/09 07:50:19;;;;;;;2.97;2.72;;;11.00;98.60;;;;;;5007832;28;20643;-82
2024/02/09 07:52:45;;;;;;;0.00;0.00;;;11.00;98.90;;;;;;5009286;28;20124;-81
2024/02/09 07:55:13;;;;;;;0.00;0.00;;;11.10;98.70;;;;;;5009227;28;20061;-82
2024/02/09 07:57:39;;;;;;;0.00;0.00;;;11.10;98.30;;;;;;5008011;28;20113;-82
2024/02/09 08:00:08;;;;;;;0.00;0.00;;;11.10;97.80;;;;;;5008052;28;20085;-81
2024/02/09 08:02:34;;;;;;;0.00;0.00;;;11.20;97.80;;;;;;5007912;28;20129;-81
2024/02/09 08:05:07;;;;;;;0.00;0.00;;;11.20;97.90;;;;;;5007112;28;20105;-81
2024/02/09 08:07:35;;;;;;;0.05;0.05;;;11.20;97.80;;;;;;5023560;28;20038;-82
2024/02/09 08:10:03;;;;;;;0.00;0.00;;;11.20;97.70;;;;;;5019366;28;20020;-82
2024/02/09 08:12:29;;;;;;;0.20;0.20;;;11.30;97.60;;;;;;5020573;28;20033;-82
2024/02/09 08:14:56;;;;;;;8.03;3.23;;;11.30;97.40;;;;;;5020251;28;20497;-81
2024/02/09 08:17:21;;;;;;;7.05;2.78;;;11.40;96.90;;;;;;5020373;28;20036;-81
2024/02/09 08:19:47;;;;;;;1.43;1.33;;;11.40;96.60;;;;;;5000599;28;20029;-82
2024/02/09 08:22:13;;;;;;;0.07;0.07;;;11.40;96.50;;;;;;5012006;28;20030;-81
2024/02/09 08:24:38;;;;;;;0.00;0.00;;;11.40;96.60;;;;;;5013925;28;20777;-81
2024/02/09 08:27:04;;;;;;;0.00;0.00;;;11.40;96.50;;;;;;5008773;28;20029;-82
2024/02/09 08:29:30;;;;;;;0.07;0.07;;;11.40;96.40;;;;;;5007002;28;20034;-82
2024/02/09 08:31:56;;;;;;;0.00;0.00;;;11.50;96.20;;;;;;5008690;28;20133;-81
2024/02/09 08:34:21;;;;;;;0.00;0.00;;;11.40;96.20;;;;;;5019022;28;20929;-81
2024/02/09 08:36:47;;;;;;;0.00;0.00;;;11.50;95.90;;;;;;5011934;28;20033;-82
2024/02/09 08:39:13;;;;;;;0.00;0.00;;;11.50;95.90;;;;;;5018949;28;20053;-82
2024/02/09 08:41:38;;;;;;;0.00;0.00;;;11.50;95.80;;;;;;5008274;28;20053;-82
2024/02/09 08:44:04;;;;;;;0.00;0.00;;;11.50;96.00;;;;;;5014254;28;20113;-82
2024/02/09 08:46:30;;;;;;;0.00;0.00;;;11.50;96.30;;;;;;5009053;28;20026;-82
2024/02/09 08:48:56;;;;;;;0.00;0.00;;;11.50;95.90;;;;;;5012069;28;20026;-81
2024/02/09 08:51:22;;;;;;;0.10;0.10;;;11.50;95.60;;;;;;5015109;28;20064;-81
2024/02/09 08:53:47;;;;;;;0.10;0.10;;;11.60;95.40;;;;;;5015546;28;20033;-81
2024/02/09 08:56:13;;;;;;;0.10;0.10;;;11.50;95.40;;;;;;5007789;28;20038;-80
2024/02/09 08:58:40;;;;;;;0.00;0.00;;;11.60;95.30;;;;;;5011638;28;20022;-82
2024/02/09 09:01:06;;;;;;;0.05;0.05;;;11.50;95.30;;;;;;5013061;28;20033;-81
2024/02/09 09:03:33;;;;;;;0.00;0.00;;;11.50;95.20;;;;;;5010329;28;20024;-82
2024/02/09 09:06:02;;;;;;;7.47;3.53;;;11.50;95.20;;;;;;5002502;28;20026;-81
2024/02/09 09:08:29;;;;;;;0.00;0.00;;;11.50;95.20;;;;;;5010623;28;20026;-80
2024/02/09 09:10:55;;;;;;;;;;;11.50;95.20;;;;;;5007906;28;20458;-80
2024/02/09 09:13:20;;;;;;;0.00;0.00;;;11.50;95.40;;;;;;5012352;28;19917;-80
2024/02/09 09:15:46;;;;;;;0.00;0.00;;;11.50;95.30;;;;;;5009981;28;20030;-81
2024/02/09 09:18:12;;;;;;;0.10;0.10;;;11.60;95.30;;;;;;5006425;28;20037;-82
2024/02/09 09:20:37;;;;;;;0.00;0.00;;;11.60;95.50;;;;;;5006264;28;20536;-80
2024/02/09 09:23:03;;;;;;;0.00;0.00;;;11.60;95.50;;;;;;5005832;28;20030;-81
2024/02/09 09:25:32;;;;;;;0.00;0.00;;;11.60;95.80;;;;;;5005934;28;20065;-81
2024/02/09 09:27:58;;;;;;;0.10;0.10;;;11.70;95.70;;;;;;5006755;28;20560;-81
2024/02/09 09:30:25;;;;;;;1.40;0.60;;;11.60;95.90;;;;;;5006514;28;20037;-81
2024/02/09 09:32:50;;;;;;;0.00;0.00;;;11.70;96.20;;;;;;5008831;28;20276;-81
2024/02/09 09:35:16;;;;;;;0.00;0.00;;;11.70;96.10;;;;;;5003056;28;20034;-81
2024/02/09 09:37:42;;;;;;;0.00;0.00;;;11.80;96.20;;;;;;5008543;28;20029;-81
2024/02/09 09:40:10;;;;;;;0.40;0.40;;;11.80;95.90;;;;;;5006820;28;20030;-80
2024/02/09 09:42:36;;;;;;;0.08;0.08;;;11.80;96.20;;;;;;5007358;28;20049;-81
2024/02/09 09:45:07;;;;;;;0.00;0.00;;;11.90;95.90;;;;;;5010655;28;20192;-82
2024/02/09 09:47:34;;;;;;;0.10;0.10;;;12.00;95.70;;;;;;5005755;28;20060;-81
2024/02/09 09:50:06;;;;;;;0.10;0.10;;;11.90;95.40;;;;;;5007506;28;20563;-81
2024/02/09 09:52:36;;;;;;;0.30;0.30;;;11.90;95.60;;;;;;5007055;28;20045;-81
2024/02/09 09:55:02;;;;;;;0.10;0.10;;;12.00;95.60;;;;;;5005040;28;20030;-82
2024/02/09 09:57:29;;;;;;;0.00;0.00;;;12.00;95.60;;;;;;5005291;28;20030;-81
2024/02/09 09:59:54;;;;;;;;;;;12.00;95.40;;;;;;5039340;28;20036;-82
2024/02/09 10:02:23;;;;;;;0.10;0.10;;;12.10;95.10;;;;;;5006768;28;20428;-81
2024/02/09 10:04:49;;;;;;;0.00;0.00;;;12.10;95.30;;;;;;5017940;28;20064;-81
2024/02/09 10:07:19;;;;;;;0.10;0.10;;;12.10;95.30;;;;;;5019563;28;20093;-81
2024/02/09 10:09:45;;;;;;;0.00;0.00;;;12.00;95.50;;;;;;5010626;28;20041;-81
2024/02/09 10:12:13;;;;;;;0.10;0.10;;;12.10;95.70;;;;;;5011544;28;20030;-81
2024/02/09 10:14:42;;;;;;;4.75;3.53;;;12.20;95.50;;;;;;5018901;28;20061;-81
2024/02/09 10:17:11;;;;;;;0.10;0.10;;;12.20;95.50;;;;;;5018215;28;20030;-81
2024/02/09 10:19:41;;;;;;;0.10;0.10;;;12.30;95.90;;;;;;5013295;28;20013;-81
2024/02/09 10:22:07;;;;;;;0.00;0.00;;;12.30;95.90;;;;;;5007954;28;20030;-81
2024/02/09 10:24:33;;;;;;;0.30;0.30;;;12.40;96.10;;;;;;5013854;28;20032;-82
2024/02/09 10:27:00;;;;;;;0.00;0.00;;;12.40;95.80;;;;;;5009605;28;21310;-80
2024/02/09 10:29:26;;;;;;;0.00;0.00;;;12.30;96.20;;;;;;5010356;28;20032;-80
2024/02/09 10:31:55;;;;;;;0.08;0.08;;;12.30;96.30;;;;;;5010023;28;20044;-80
2024/02/09 10:34:24;;;;;;;0.00;0.00;;;12.30;96.40;;;;;;5011146;28;20034;-81
2024/02/09 10:36:53;;;;;;;0.00;0.00;;;12.30;96.40;;;;;;5009993;28;20030;-82
2024/02/09 10:39:19;;;;;;;0.00;0.00;;;12.40;96.40;;;;;;5014143;28;20402;-81
2024/02/09 10:41:48;;;;;;;1.80;0.50;;;12.60;96.10;;;;;;5012342;28;20025;-81
2024/02/09 10:44:15;;;;;;;0.10;0.10;;;12.70;95.80;;;;;;5011055;28;20056;-80
2024/02/09 10:46:43;;;;;;;0.00;0.00;;;12.70;96.10;;;;;;5010201;28;21048;-81
2024/02/09 10:49:09;;;;;;;0.13;0.13;;;12.90;95.60;;;;;;5008611;28;20879;-80
2024/02/09 10:51:36;;;;;;;0.00;0.00;;;13.10;94.70;;;;;;5012274;28;20025;-81
2024/02/09 10:54:07;;;;;;;;;;;13.10;95.00;;;;;;5009340;28;20038;-82
2024/02/09 10:56:35;;;;;;;0.20;0.20;;;13.30;94.60;;;;;;5010955;28;20392;-81
2024/02/09 10:59:01;;;;;;;0.00;0.00;;;13.20;94.70;;;;;;5010169;28;20026;-81
2024/02/09 11:01:27;;;;;;;0.10;0.10;;;13.20;94.60;;;;;;5010161;28;20069;-80
2024/02/09 11:03:54;;;;;;;0.10;0.10;;;13.20;94.50;;;;;;5005572;28;20030;-81
2024/02/09 11:06:20;;;;;;;0.00;0.00;;;13.30;94.20;;;;;;5010803;28;20579;-81
2024/02/09 11:08:47;;;;;;;0.00;0.00;;;13.10;94.40;;;;;;5012829;28;20580;-81
2024/02/09 11:11:13;;;;;;;0.22;0.22;;;13.00;95.00;;;;;;5008333;28;20476;-81
2024/02/09 11:13:38;;;;;;;0.00;0.00;;;13.00;95.20;;;;;;5015831;28;20547;-81
2024/02/09 11:16:07;;;;;;;0.07;0.07;;;13.10;95.10;;;;;;5009488;28;20053;-81
2024/02/09 11:18:35;;;;;;;0.00;0.00;;;13.30;94.40;;;;;;5013244;28;20029;-82
2024/02/09 11:21:04;;;;;;;0.05;0.05;;;13.30;94.70;;;;;;5013681;28;20476;-82
2024/02/09 11:23:40;;;;;;;0.00;0.00;;;13.20;94.60;;;;;;5015217;28;20857;-82
2024/02/09 11:26:13;;;;;;;0.00;0.00;;;13.30;94.50;;;;;;5017904;28;20021;-81
2024/02/09 11:28:40;;;;;;;0.10;0.10;;;13.30;94.70;;;;;;5007334;28;20026;-82
2024/02/09 11:31:10;;;;;;;0.00;0.00;;;13.60;94.50;;;;;;5010469;28;20021;-82
2024/02/09 11:33:39;;;;;;;0.00;0.00;;;13.70;94.10;;;;;;5011989;28;20509;-81
2024/02/09 11:36:06;;;;;;;0.00;0.00;;;13.90;93.40;;;;;;5013177;28;20068;-81
2024/02/09 11:38:32;;;;;;;0.00;0.00;;;14.10;93.50;;;;;;5042256;28;20026;-81
2024/02/09 11:40:58;;;;;;;0.07;0.07;;;14.20;93.40;;;;;;5011616;28;20041;-82
2024/02/09 11:43:26;;;;;;;0.00;0.00;;;14.00;93.00;;;;;;5007965;28;20053;-81
2024/02/09 11:45:54;;;;;;;0.00;0.00;;;14.10;93.20;;;;;;5007518;28;20041;-82
2024/02/09 11:48:23;;;;;;;0.00;0.00;;;13.90;93.70;;;;;;5008233;28;20060;-81
2024/02/09 11:50:50;;;;;;;0.00;0.00;;;14.00;93.60;;;;;;5009472;28;20465;-82
2024/02/09 11:53:16;;;;;;;0.00;0.00;;;14.00;93.60;;;;;;5010216;28;20041;-82
2024/02/09 11:55:42;;;;;;;0.00;0.00;;;13.90;93.50;;;;;;5008799;28;20034;-82
2024/02/09 11:58:08;;;;;;;;;;;13.70;93.90;;;;;;5011797;28;20052;-82
2024/02/09 12:00:35;;;;;;;0.30;0.30;;;13.90;94.10;;;;;;5008147;28;19913;-82
2024/02/09 12:03:03;;;;;;;0.00;0.00;;;13.90;94.20;;;;;;5009685;28;20033;-81
2024/02/09 12:05:29;;;;;;;0.00;0.00;;;14.10;93.50;;;;;;5004027;28;21064;-82
2024/02/09 12:07:55;;;;;;;0.00;0.00;;;13.90;93.80;;;;;;5016779;28;20032;-81
2024/02/09 12:10:21;;;;;;;0.00;0.00;;;13.90;93.40;;;;;;5008392;28;20030;-82
2024/02/09 12:12:50;;;;;;;0.10;0.10;;;14.10;93.60;;;;;;5012311;28;20496;-82
2024/02/09 12:15:19;;;;;;;0.00;0.00;;;14.20;92.70;;;;;;5009665;28;20030;-82
2024/02/09 12:17:48;;;;;;;0.52;0.52;;;14.10;93.20;;;;;;5012659;28;20029;-81
2024/02/09 12:20:14;;;;;;;0.10;0.10;;;14.20;92.70;;;;;;5014688;28;20025;-82
2024/02/09 12:22:41;;;;;;;0.00;0.00;;;14.10;93.10;;;;;;5008975;28;20557;-82
2024/02/09 12:25:11;;;;;;;0.10;0.10;;;14.30;93.00;;;;;;5012327;28;20040;-82
2024/02/09 12:27:37;;;;;;;0.00;0.00;;;14.40;92.80;;;;;;5007681;28;20065;-82
2024/02/09 12:30:04;;;;;;;0.00;0.00;;;14.60;92.10;;;;;;5007622;28;20096;-82
2024/02/09 12:32:32;;;;;;;0.00;0.00;;;14.20;92.40;;;;;;5007986;28;20572;-82
2024/02/09 12:34:58;;;;;;;0.00;0.00;;;13.80;93.40;;;;;;5009314;28;20120;-81
2024/02/09 12:37:24;;;;;;;0.07;0.07;;;14.00;93.30;;;;;;5006933;28;20113;-82
2024/02/09 12:39:53;;;;;;;0.00;0.00;;;14.00;93.10;;;;;;5010323;28;20038;-82
2024/02/09 12:42:31;;;;;;;0.00;0.00;;;14.00;92.30;;;;;;5006426;28;21104;-82
2024/02/09 12:45:00;;;;;;;0.00;0.00;;;14.10;92.90;;;;;;5005602;28;20111;-82
2024/02/09 12:47:26;;;;;;;0.00;0.00;;;14.50;92.40;;;;;;5008056;28;20736;-82
2024/02/09 12:49:56;;;;;;;0.00;0.00;;;14.40;91.90;;;;;;5008077;28;20033;-82
2024/02/09 12:52:25;;;;;;;0.00;0.00;;;14.40;92.00;;;;;;5009188;28;20026;-82
2024/02/09 12:54:54;;;;;;;0.00;0.00;;;14.50;91.70;;;;;;5009339;28;20475;-82
2024/02/09 12:57:20;;;;;;;0.00;0.00;;;14.70;92.30;;;;;;5007022;28;20178;-82
2024/02/09 12:59:46;;;;;;;0.10;0.10;;;14.70;91.90;;;;;;5008705;28;20022;-82
2024/02/09 13:02:11;;;;;;;0.03;0.03;;;14.60;92.60;;;;;;5007967;28;20029;-82
2024/02/09 13:04:37;;;;;;;0.17;0.17;;;15.00;92.40;;;;;;5004925;28;20026;-82
2024/02/09 13:07:06;;;;;;;0.00;0.00;;;15.00;91.70;;;;;;5013960;28;20038;-82
2024/02/09 13:09:35;;;;;;;0.20;0.20;;;14.90;91.50;;;;;;5006435;28;20034;-82
2024/02/09 13:12:02;;;;;;;0.00;0.00;;;14.80;91.00;;;;;;5007390;28;20029;-82
2024/02/09 13:14:28;;;;;;;0.00;0.00;;;14.60;91.60;;;;;;5017555;28;20025;-82
2024/02/09 13:16:54;;;;;;;0.00;0.00;;;14.90;91.60;;;;;;5010062;28;20033;-82
2024/02/09 13:19:19;;;;;;;0.00;0.00;;;15.10;91.10;;;;;;5005786;28;20038;-82
2024/02/09 13:21:46;;;;;;;0.00;0.00;;;14.80;91.50;;;;;;5007464;28;20108;-82
2024/02/09 13:24:12;;;;;;;0.00;0.00;;;14.50;92.10;;;;;;5009613;28;20029;-82
2024/02/09 13:26:39;;;;;;;0.00;0.00;;;14.60;92.40;;;;;;5008138;28;20038;-82
2024/02/09 13:29:05;;;;;;;7.93;4.38;;;14.40;92.50;;;;;;5006111;28;20285;-82
2024/02/09 13:31:34;;;;;;;0.00;0.00;;;14.10;92.70;;;;;;5007242;28;20032;-82
2024/02/09 13:34:00;;;;;;;0.00;0.00;;;14.10;93.00;;;;;;5009067;28;20047;-82
2024/02/09 13:36:26;;;;;;;0.00;0.00;;;14.20;92.80;;;;;;5007323;28;20583;-82
2024/02/09 13:38:52;;;;;;;0.00;0.00;;;14.10;92.80;;;;;;5006933;28;20026;-82
2024/02/09 13:41:21;;;;;;;0.00;0.00;;;14.30;92.80;;;;;;5006861;28;20026;-82
2024/02/09 13:43:46;;;;;;;0.00;0.00;;;14.40;92.80;;;;;;5000498;28;20284;-82
2024/02/09 13:46:12;;;;;;;8.03;4.90;;;14.40;92.80;;;;;;5007833;28;20026;-81
2024/02/09 13:48:38;;;;;;;0.00;0.00;;;14.40;92.80;;;;;;5005357;28;20036;-81
2024/02/09 13:51:07;;;;;;;0.10;0.10;;;14.30;93.30;;;;;;5006976;28;20065;-82
2024/02/09 13:53:32;;;;;;;0.00;0.00;;;14.40;92.90;;;;;;5007007;28;20026;-81
2024/02/09 13:55:58;;;;;;;0.00;0.00;;;14.50;92.90;;;;;;5008861;28;20030;-82
2024/02/09 13:58:26;;;;;;;0.00;0.00;;;14.40;92.50;;;;;;5008853;28;20032;-82
2024/02/09 14:00:52;;;;;;;0.13;0.13;;;14.40;92.40;;;;;;5007447;28;20018;-81
2024/02/09 14:03:19;;;;;;;0.00;0.00;;;14.70;92.50;;;;;;5008091;28;20080;-81
2024/02/09 14:05:46;;;;;;;0.00;0.00;;;14.70;92.00;;;;;;5001102;28;20073;-81
2024/02/09 14:08:11;;;;;;;0.00;0.00;;;14.60;92.10;;;;;;5012213;28;20034;-82
2024/02/09 14:10:40;;;;;;;0.00;0.00;;;14.30;92.30;;;;;;5007331;28;20042;-81
2024/02/09 14:13:06;;;;;;;0.00;0.00;;;14.10;93.10;;;;;;5012736;28;20038;-81
2024/02/09 14:15:33;;;;;;;0.00;0.00;;;14.20;93.20;;;;;;5014405;28;20064;-82
2024/02/09 14:17:59;;;;;;;0.00;0.00;;;14.00;93.50;;;;;;5016622;28;20034;-82
2024/02/09 14:20:26;;;;;;;0.00;0.00;;;14.10;93.30;;;;;;5006429;28;20028;-81
2024/02/09 14:22:53;;;;;;;0.00;0.00;;;14.10;93.00;;;;;;5006837;28;20053;-81
2024/02/09 14:25:18;;;;;;;0.00;0.00;;;14.10;92.70;;;;;;5010025;28;20561;-82
2024/02/09 14:27:45;;;;;;;0.10;0.10;;;14.10;92.70;;;;;;5005765;28;20033;-82
2024/02/09 14:30:12;;;;;;;0.00;0.00;;;14.10;92.80;;;;;;5005565;28;20030;-82
2024/02/09 14:32:38;;;;;;;;;;;14.10;92.90;;;;;;5007513;28;20144;-82
2024/02/09 14:35:05;;;;;;;0.00;0.00;;;13.90;93.20;;;;;;5007517;28;19980;-82
2024/02/09 14:37:30;;;;;;;0.00;0.00;;;13.90;93.30;;;;;;5005636;28;20909;-82